createdAt,value
2018-09-11T00:01:14.607Z,13.90
2018-09-11T00:03:49.043Z,13.90
2018-09-11T00:06:29.798Z,13.80
2018-09-11T00:09:00.508Z,13.80
2018-09-11T00:11:44.228Z,13.80
2018-09-11T00:14:18.342Z,13.90
2018-09-11T00:16:48.166Z,13.90
2018-09-11T00:19:22.841Z,13.80
2018-09-11T00:21:57.206Z,13.70
2018-09-11T00:24:38.887Z,13.70
2018-09-11T00:27:21.694Z,13.50
2018-09-11T00:32:43.679Z,13.20
2018-09-11T00:35:29.230Z,13.10
2018-09-11T00:37:58.042Z,13.20
2018-09-11T00:40:28.890Z,13.20
2018-09-11T00:42:57.666Z,13.30
2018-09-11T00:45:28.566Z,13.40
2018-09-11T00:50:52.912Z,13.50
2018-09-11T00:53:25.286Z,13.60
2018-09-11T00:56:13.478Z,13.60
2018-09-11T00:58:48.482Z,13.80
2018-09-11T01:01:27.337Z,13.90
2018-09-11T01:04:01.594Z,13.90
2018-09-11T01:06:50.595Z,13.90
2018-09-11T01:09:20.383Z,13.90
2018-09-11T01:12:06.831Z,13.80
2018-09-11T01:14:38.742Z,13.60
2018-09-11T01:17:11.598Z,13.60
2018-09-11T01:19:40.422Z,13.60
2018-09-11T01:22:10.223Z,13.60
2018-09-11T01:24:39.002Z,13.60
2018-09-11T01:27:19.822Z,13.60
2018-09-11T01:30:11.022Z,13.50
2018-09-11T01:32:41.810Z,13.40
2018-09-11T01:35:17.910Z,13.40
2018-09-11T01:37:57.658Z,13.30
2018-09-11T01:40:38.490Z,13.10
2018-09-11T01:46:17.687Z,13.00
2018-09-11T01:48:49.638Z,12.90
2018-09-11T01:51:19.671Z,12.90
2018-09-11T01:53:49.411Z,12.90
2018-09-11T01:56:21.303Z,12.90
2018-09-11T01:58:54.363Z,12.90
2018-09-11T02:01:28.606Z,13.00
2018-09-11T02:04:22.310Z,13.00
2018-09-11T02:06:58.439Z,12.90
2018-09-11T02:09:47.751Z,13.00
2018-09-11T02:12:22.766Z,13.00
2018-09-11T02:14:51.591Z,13.00
2018-09-11T02:17:24.894Z,13.00
2018-09-11T02:20:07.703Z,13.10
2018-09-11T02:22:42.163Z,13.10
2018-09-11T02:25:17.476Z,13.00
2018-09-11T02:30:57.134Z,12.90
2018-09-11T02:33:34.555Z,12.80
2018-09-11T02:36:03.680Z,12.70
2018-09-11T02:38:38.079Z,12.60
2018-09-11T02:41:08.211Z,12.50
2018-09-11T02:43:37.080Z,12.50
2018-09-11T02:49:02.521Z,12.50
2018-09-11T02:51:35.215Z,12.50
2018-09-11T03:00:03.016Z,12.50
2018-09-11T03:02:32.818Z,12.30
2018-09-11T03:05:04.118Z,12.20
2018-09-11T03:07:35.894Z,12.20
2018-09-11T03:10:07.763Z,12.20
2018-09-11T03:12:36.523Z,12.20
2018-09-11T03:15:06.359Z,12.20
2018-09-11T03:17:40.160Z,12.30
2018-09-11T03:23:16.406Z,12.30
2018-09-11T03:25:48.186Z,12.30
2018-09-11T03:28:16.999Z,12.20
2018-09-11T03:30:46.782Z,12.10
2018-09-11T03:33:33.594Z,12.10
2018-09-11T03:36:05.587Z,12.10
2018-09-11T03:38:38.454Z,11.90
2018-09-11T03:41:12.782Z,11.80
2018-09-11T03:43:43.613Z,11.80
2018-09-11T03:46:12.383Z,11.70
2018-09-11T03:48:49.412Z,11.70
2018-09-11T03:51:24.938Z,11.60
2018-09-11T03:53:53.695Z,11.60
2018-09-11T03:56:37.875Z,11.60
2018-09-11T03:59:36.386Z,11.50
2018-09-11T04:02:13.112Z,11.40
2018-09-11T04:04:59.794Z,11.30
2018-09-11T04:07:36.002Z,11.20
2018-09-11T04:10:08.242Z,11.20
2018-09-11T04:12:37.026Z,11.10
2018-09-11T04:15:20.898Z,11.20
2018-09-11T04:17:52.910Z,11.20
2018-09-11T04:20:27.714Z,11.30
2018-09-11T04:23:06.202Z,11.30
2018-09-11T04:25:38.473Z,11.30
2018-09-11T04:28:07.242Z,11.20
2018-09-11T04:30:52.358Z,11.10
2018-09-11T04:33:28.534Z,11.00
2018-09-11T04:36:03.438Z,10.90
2018-09-11T04:41:26.790Z,11.00
2018-09-11T04:43:57.618Z,11.00
2018-09-11T04:46:26.422Z,11.00
2018-09-11T04:49:05.663Z,10.90
2018-09-11T04:51:38.130Z,10.90
2018-09-11T04:54:07.917Z,10.90
2018-09-11T04:56:47.861Z,10.90
2018-09-11T04:59:17.678Z,11.00
2018-09-11T05:01:58.622Z,10.90
2018-09-11T05:04:30.494Z,10.90
2018-09-11T05:07:05.854Z,10.90
2018-09-11T05:09:39.454Z,11.00
2018-09-11T05:12:15.882Z,11.30
2018-09-11T05:15:03.402Z,11.50
2018-09-11T05:17:37.556Z,11.60
2018-09-11T05:23:22.705Z,11.90
2018-09-11T05:26:12.478Z,12.00
2018-09-11T05:31:38.874Z,12.30
2018-09-11T05:34:17.230Z,12.50
2018-09-11T05:36:57.066Z,12.70
2018-09-11T05:39:32.213Z,12.90
2018-09-11T05:42:06.509Z,13.10
2018-09-11T05:44:36.294Z,13.20
2018-09-11T05:47:11.889Z,13.40
2018-09-11T05:49:45.280Z,13.60
2018-09-11T05:52:21.533Z,13.80
2018-09-11T05:55:05.011Z,13.90
2018-09-11T05:57:57.837Z,14.00
2018-09-11T06:00:37.870Z,14.20
2018-09-11T06:03:06.841Z,14.40
2018-09-11T06:05:48.227Z,14.50
2018-09-11T06:08:17.797Z,14.80
2018-09-11T06:10:49.797Z,15.00
2018-09-11T06:13:36.737Z,15.20
2018-09-11T06:16:09.511Z,15.50
2018-09-11T06:18:38.249Z,15.70
2018-09-11T06:21:11.641Z,15.90
2018-09-11T06:23:46.005Z,16.10
2018-09-11T06:26:20.838Z,16.30
2018-09-11T06:28:53.509Z,16.50
2018-09-11T06:31:25.377Z,16.70
2018-09-11T06:33:58.005Z,17.00
2018-09-11T06:36:37.381Z,17.20
2018-09-11T06:39:12.058Z,17.50
2018-09-11T06:41:42.766Z,17.80
2018-09-11T06:44:12.516Z,18.00
2018-09-11T06:46:59.343Z,18.20
2018-09-11T06:49:36.925Z,18.40
2018-09-11T06:52:09.713Z,18.50
2018-09-11T06:54:38.494Z,18.60
2018-09-11T06:57:11.017Z,18.70
2018-09-11T06:59:40.774Z,18.90
2018-09-11T07:02:14.737Z,19.00
2018-09-11T07:04:43.473Z,19.30
2018-09-11T07:07:31.869Z,19.30
2018-09-11T07:10:10.689Z,19.50
2018-09-11T07:12:39.421Z,19.50
2018-09-11T07:15:32.030Z,19.60
2018-09-11T07:18:01.777Z,19.70
2018-09-11T07:20:36.869Z,19.60
2018-09-11T07:23:07.909Z,19.70
2018-09-11T07:25:36.669Z,20.00
2018-09-11T07:28:25.030Z,20.40
2018-09-11T07:30:53.973Z,20.60
2018-09-11T07:33:22.789Z,21.00
2018-09-11T07:35:55.326Z,21.40
2018-09-11T07:38:29.046Z,21.70
2018-09-11T07:41:10.309Z,22.00
2018-09-11T07:43:39.094Z,22.40
2018-09-11T07:46:08.798Z,22.80
2018-09-11T07:48:37.786Z,23.10
2018-09-11T07:51:06.894Z,23.30
2018-09-11T07:53:37.645Z,23.20
2018-09-11T07:56:11.077Z,23.00
2018-09-11T07:58:44.334Z,22.90
2018-09-11T08:01:35.262Z,22.70
2018-09-11T08:04:09.770Z,22.90
2018-09-11T08:06:38.563Z,23.00
2018-09-11T08:09:16.906Z,23.30
2018-09-11T08:11:46.699Z,23.60
2018-09-11T08:14:15.470Z,24.10
2018-09-11T08:16:44.269Z,24.40
2018-09-11T08:19:13.050Z,24.60
2018-09-11T08:21:45.762Z,25.20
2018-09-11T08:24:14.498Z,25.60
2018-09-11T08:26:51.994Z,25.50
2018-09-11T08:29:28.425Z,25.30
2018-09-11T08:32:14.554Z,25.30
2018-09-11T08:34:50.122Z,25.10
2018-09-11T08:37:21.870Z,25.40
2018-09-11T08:39:58.178Z,25.60
2018-09-11T08:42:28.890Z,25.70
2018-09-11T08:45:10.422Z,26.50
2018-09-11T08:47:43.206Z,27.10
2018-09-11T08:50:24.074Z,27.50
2018-09-11T08:52:53.812Z,27.60
2018-09-11T08:55:30.550Z,27.80
2018-09-11T08:58:03.718Z,27.60
2018-09-11T09:00:33.450Z,27.20
2018-09-11T09:03:03.190Z,26.80
2018-09-11T09:05:37.474Z,26.50
2018-09-11T09:08:06.330Z,27.00
2018-09-11T09:10:37.054Z,27.50
2018-09-11T09:13:10.655Z,28.20
2018-09-11T09:15:42.571Z,28.20
2018-09-11T09:18:35.402Z,28.10
2018-09-11T09:21:27.230Z,28.20
2018-09-11T09:23:57.941Z,28.40
2018-09-11T09:26:36.785Z,28.70
2018-09-11T09:29:21.986Z,28.90
2018-09-11T09:32:02.330Z,28.90
2018-09-11T09:34:33.350Z,28.90
2018-09-11T09:37:06.488Z,29.40
2018-09-11T09:39:35.302Z,30.10
2018-09-11T09:42:29.158Z,30.20
2018-09-11T09:45:03.794Z,30.50
2018-09-11T09:47:32.575Z,31.30
2018-09-11T09:50:13.632Z,31.70
2018-09-11T09:52:42.334Z,32.10
2018-09-11T09:55:12.039Z,32.40
2018-09-11T09:57:45.837Z,32.60
2018-09-11T10:00:18.798Z,32.60
2018-09-11T10:02:47.522Z,33.40
2018-09-11T10:05:35.317Z,33.50
2018-09-11T10:08:06.137Z,33.70
2018-09-11T10:10:34.982Z,33.60
2018-09-11T10:13:09.482Z,33.80
2018-09-11T10:15:38.200Z,34.20
2018-09-11T10:18:11.073Z,33.30
2018-09-11T10:20:45.767Z,33.30
2018-09-11T10:23:24.485Z,33.30
2018-09-11T10:26:00.205Z,33.40
2018-09-11T10:28:36.834Z,32.70
2018-09-11T10:34:06.496Z,34.40
2018-09-11T10:36:37.297Z,35.60
2018-09-11T10:39:20.494Z,36.20
2018-09-11T10:41:49.229Z,35.70
2018-09-11T10:44:21.101Z,35.00
2018-09-11T10:46:49.850Z,35.10
2018-09-11T10:49:21.701Z,35.40
2018-09-11T10:51:52.469Z,34.70
2018-09-11T10:54:26.898Z,34.00
2018-09-11T10:57:16.326Z,33.60
2018-09-11T10:59:47.068Z,33.40
2018-09-11T11:02:17.802Z,33.20
2018-09-11T11:04:47.526Z,33.00
2018-09-11T11:07:19.470Z,34.00
2018-09-11T11:09:49.278Z,33.40
2018-09-11T11:12:23.134Z,34.20
2018-09-11T11:14:59.364Z,35.30
2018-09-11T11:17:28.110Z,36.60
2018-09-11T11:19:56.934Z,36.10
2018-09-11T11:22:27.741Z,35.80
2018-09-11T11:24:56.554Z,36.20
2018-09-11T11:27:30.989Z,35.10
2018-09-11T11:30:06.277Z,33.20
2018-09-11T11:32:40.570Z,31.90
2018-09-11T11:35:13.462Z,30.90
2018-09-11T11:37:44.210Z,30.20
2018-09-11T11:40:28.994Z,30.60
2018-09-11T11:42:57.802Z,31.00
2018-09-11T11:45:27.538Z,31.20
2018-09-11T11:47:57.313Z,31.30
2018-09-11T11:50:26.122Z,33.10
2018-09-11T11:52:54.894Z,33.90
2018-09-11T11:55:33.076Z,32.70
2018-09-11T11:58:11.245Z,32.40
2018-09-11T12:00:39.969Z,33.80
2018-09-11T12:03:13.370Z,35.20
2018-09-11T12:05:56.153Z,34.60
2018-09-11T12:08:36.497Z,34.20
2018-09-11T12:11:06.318Z,34.00
2018-09-11T12:13:36.075Z,33.00
2018-09-11T12:16:11.150Z,33.90
2018-09-11T12:18:39.981Z,35.60
2018-09-11T12:21:09.701Z,37.70
2018-09-11T12:23:38.418Z,36.80
2018-09-11T12:26:08.229Z,36.70
2018-09-11T12:28:37.005Z,37.40
2018-09-11T12:31:15.705Z,37.50
2018-09-11T12:33:48.189Z,35.80
2018-09-11T12:36:20.079Z,36.50
2018-09-11T12:39:11.867Z,36.40
2018-09-11T12:41:40.690Z,36.40
2018-09-11T12:44:15.218Z,35.40
2018-09-11T12:46:49.385Z,36.50
2018-09-11T12:49:18.942Z,36.30
2018-09-11T12:51:54.198Z,36.10
2018-09-11T12:54:26.686Z,36.40
2018-09-11T12:56:56.453Z,36.50
2018-09-11T12:59:26.165Z,37.60
2018-09-11T13:01:55.871Z,37.70
2018-09-11T13:04:30.458Z,37.50
2018-09-11T13:07:06.754Z,37.70
2018-09-11T13:09:35.513Z,37.60
2018-09-11T13:12:09.986Z,37.80
2018-09-11T13:14:38.786Z,37.10
2018-09-11T13:17:09.502Z,37.00
2018-09-11T13:19:38.282Z,36.50
2018-09-11T13:22:07.006Z,36.20
2018-09-11T13:24:36.817Z,36.80
2018-09-11T13:27:13.917Z,37.70
2018-09-11T13:29:55.093Z,37.20
2018-09-11T13:32:35.473Z,36.80
2018-09-11T13:35:08.806Z,37.20
2018-09-11T13:37:37.533Z,37.90
2018-09-11T13:40:11.922Z,38.00
2018-09-11T13:42:40.785Z,37.60
2018-09-11T13:45:11.533Z,37.50
2018-09-11T13:47:41.338Z,38.00
2018-09-11T13:50:13.746Z,38.60
2018-09-11T13:52:47.761Z,39.50
2018-09-11T13:55:19.589Z,39.00
2018-09-11T13:57:53.345Z,37.70
2018-09-11T14:00:24.106Z,37.30
2018-09-11T14:02:53.825Z,37.10
2018-09-11T14:05:30.409Z,37.00
2018-09-11T14:07:59.217Z,36.50
2018-09-11T14:10:28.989Z,36.90
2018-09-11T14:13:18.608Z,38.00
2018-09-11T14:15:54.954Z,38.40
2018-09-11T14:18:33.594Z,37.60
2018-09-11T14:21:08.197Z,36.80
2018-09-11T14:23:36.929Z,36.80
2018-09-11T14:26:05.653Z,36.60
2018-09-11T14:28:36.521Z,36.90
2018-09-11T14:31:11.185Z,36.60
2018-09-11T14:33:41.069Z,36.30
2018-09-11T14:36:13.814Z,35.90
2018-09-11T14:38:50.153Z,35.20
2018-09-11T14:41:25.944Z,35.50
2018-09-11T14:44:07.301Z,35.20
2018-09-11T14:46:36.250Z,34.80
2018-09-11T14:49:06.130Z,35.20
2018-09-11T14:51:34.841Z,35.50
2018-09-11T14:54:03.681Z,35.70
2018-09-11T14:56:36.045Z,36.40
2018-09-11T15:02:01.685Z,36.30
2018-09-11T15:04:31.520Z,36.00
2018-09-11T15:07:12.325Z,36.40
2018-09-11T15:09:42.106Z,36.40
2018-09-11T15:12:22.469Z,36.40
2018-09-11T15:15:01.232Z,36.70
2018-09-11T15:17:30.061Z,36.60
2018-09-11T15:19:58.839Z,36.70
2018-09-11T15:22:27.617Z,36.30
2018-09-11T15:24:59.673Z,36.00
2018-09-11T15:27:33.405Z,35.80
2018-09-11T15:30:02.164Z,35.70
2018-09-11T15:32:30.884Z,35.10
2018-09-11T15:35:00.269Z,34.60
2018-09-11T15:37:36.141Z,34.00
2018-09-11T15:40:07.241Z,34.20
2018-09-11T15:42:36.029Z,33.60
2018-09-11T15:45:10.034Z,33.20
2018-09-11T15:47:38.765Z,33.20
2018-09-11T15:50:10.906Z,32.40
2018-09-11T15:52:52.017Z,31.80
2018-09-11T15:55:30.321Z,31.60
2018-09-11T15:58:12.965Z,31.60
2018-09-11T16:00:41.713Z,32.40
2018-09-11T16:03:11.533Z,31.90
2018-09-11T16:05:43.371Z,31.50
2018-09-11T16:08:12.141Z,31.80
2018-09-11T16:13:35.049Z,32.30
2018-09-11T16:16:04.829Z,32.00
2018-09-11T16:18:35.733Z,31.60
2018-09-11T16:21:04.612Z,30.90
2018-09-11T16:23:44.545Z,30.80
2018-09-11T16:26:13.285Z,31.10
2018-09-11T16:28:44.021Z,31.30
2018-09-11T16:31:18.107Z,31.00
2018-09-11T16:33:50.849Z,30.40
2018-09-11T16:36:19.569Z,30.60
2018-09-11T16:38:51.661Z,30.70
2018-09-11T16:41:23.613Z,30.40
2018-09-11T16:43:53.465Z,30.20
2018-09-11T16:46:22.229Z,30.10
2018-09-11T16:49:05.277Z,29.90
2018-09-11T16:51:34.121Z,29.30
2018-09-11T16:54:04.143Z,29.40
2018-09-11T16:56:33.017Z,29.20
2018-09-11T16:59:05.105Z,29.00
2018-09-11T17:01:34.839Z,28.90
2018-09-11T17:04:11.028Z,28.50
2018-09-11T17:06:46.757Z,28.10
2018-09-11T17:09:16.493Z,27.60
2018-09-11T17:11:45.325Z,27.10
2018-09-11T17:14:17.785Z,26.70
2018-09-11T17:16:49.333Z,26.30
2018-09-11T17:19:21.465Z,25.90
2018-09-11T17:21:50.204Z,25.30
2018-09-11T17:24:19.917Z,24.70
2018-09-11T17:26:51.885Z,24.10
2018-09-11T17:29:41.097Z,23.60
2018-09-11T17:32:09.943Z,23.20
2018-09-11T17:34:39.713Z,22.80
2018-09-11T17:37:09.481Z,22.40
2018-09-11T17:39:38.252Z,22.20
2018-09-11T17:45:02.702Z,21.70
2018-09-11T17:47:36.043Z,21.40
2018-09-11T17:50:04.993Z,21.20
2018-09-11T17:52:34.045Z,21.00
2018-09-11T17:55:02.841Z,20.80
2018-09-11T17:57:35.013Z,20.60
2018-09-11T18:00:05.774Z,20.40
2018-09-11T18:02:35.561Z,20.20
2018-09-11T18:05:04.713Z,20.00
2018-09-11T18:07:35.501Z,19.80
2018-09-11T18:10:08.034Z,19.70
2018-09-11T18:12:37.877Z,19.60
2018-09-11T18:15:07.685Z,19.50
2018-09-11T18:17:42.402Z,19.30
2018-09-11T18:20:22.845Z,19.10
2018-09-11T18:22:55.949Z,19.00
2018-09-11T18:25:27.917Z,18.90
2018-09-11T18:28:01.641Z,18.70
2018-09-11T18:30:30.373Z,18.60
2018-09-11T18:32:59.101Z,18.50
2018-09-11T18:35:34.782Z,18.40
2018-09-11T18:38:03.650Z,18.30
2018-09-11T18:40:32.373Z,18.20
2018-09-11T18:43:01.145Z,18.10
2018-09-11T18:45:30.917Z,18.10
2018-09-11T18:48:12.025Z,18.00
2018-09-11T18:50:42.798Z,17.90
2018-09-11T18:53:19.517Z,17.80
2018-09-11T18:55:52.265Z,17.70
2018-09-11T18:58:23.102Z,17.60
2018-09-11T19:00:52.981Z,17.50
2018-09-11T19:03:22.717Z,17.40
2018-09-11T19:05:55.409Z,17.30
2018-09-11T19:08:24.181Z,17.30
2018-09-11T19:10:59.705Z,17.30
2018-09-11T19:13:32.005Z,17.20
2018-09-11T19:16:00.813Z,17.10
2018-09-11T19:18:35.248Z,17.00
2018-09-11T19:21:14.017Z,17.00
2018-09-11T19:23:46.329Z,16.90
2018-09-11T19:26:18.093Z,16.80
2018-09-11T19:28:52.092Z,16.80
2018-09-11T19:31:26.013Z,16.80
2018-09-11T19:33:54.797Z,16.70
2018-09-11T19:36:26.813Z,16.70
2018-09-11T19:38:55.669Z,16.60
2018-09-11T19:41:26.537Z,16.50
2018-09-11T19:43:57.325Z,16.40
2018-09-11T19:46:26.121Z,16.30
2018-09-11T19:49:12.853Z,16.20
2018-09-11T19:51:45.974Z,16.10
2018-09-11T19:54:15.797Z,15.90
2018-09-11T19:56:58.125Z,15.70
2018-09-11T19:59:39.008Z,15.50
2018-09-11T20:02:14.733Z,15.40
2018-09-11T20:04:47.136Z,15.50
2018-09-11T20:07:19.874Z,15.60
2018-09-11T20:10:00.621Z,15.60
2018-09-11T20:12:31.521Z,15.60
2018-09-11T20:17:57.725Z,15.60
2018-09-11T20:20:33.928Z,15.50
2018-09-11T20:28:54.640Z,15.10
2018-09-11T20:31:36.465Z,15.00
2018-09-11T20:34:06.533Z,15.10
2018-09-11T20:36:41.273Z,15.10
2018-09-11T20:39:16.533Z,15.10
2018-09-11T20:41:45.333Z,15.00
2018-09-11T20:44:14.240Z,14.80
2018-09-11T20:46:43.069Z,14.70
2018-09-11T20:49:11.861Z,14.60
2018-09-11T20:51:58.342Z,14.60
2018-09-11T20:54:44.101Z,14.60
2018-09-11T20:57:22.981Z,14.70
2018-09-11T20:59:55.773Z,14.80
2018-09-11T21:02:29.565Z,14.80
2018-09-11T21:04:59.397Z,14.90
2018-09-11T21:07:29.165Z,14.80
2018-09-11T21:10:03.016Z,14.80
2018-09-11T21:12:32.784Z,14.70
2018-09-11T21:15:05.047Z,14.60
2018-09-11T21:17:34.041Z,14.60
2018-09-11T21:20:09.240Z,14.40
2018-09-11T21:22:38.129Z,14.40
2018-09-11T21:25:07.889Z,14.30
2018-09-11T21:27:53.337Z,14.30
2018-09-11T21:30:31.924Z,14.30
2018-09-11T21:33:00.689Z,14.40
2018-09-11T21:35:35.189Z,14.40
2018-09-11T21:38:06.125Z,14.30
2018-09-11T21:40:34.897Z,14.30
2018-09-11T21:43:21.616Z,14.10
2018-09-11T21:45:55.969Z,14.10
2018-09-11T21:48:34.817Z,14.00
2018-09-11T21:51:09.642Z,14.00
2018-09-11T21:53:38.500Z,13.90
2018-09-11T21:56:24.025Z,13.80
2018-09-11T21:58:53.805Z,13.80
2018-09-11T22:01:38.145Z,13.70
2018-09-11T22:04:14.444Z,13.80
2018-09-11T22:07:00.760Z,13.80
2018-09-11T22:09:29.608Z,13.70
2018-09-11T22:12:00.532Z,13.60
2018-09-11T22:14:30.216Z,13.60
2018-09-11T22:16:59.952Z,13.50
2018-09-11T22:19:33.780Z,13.40
2018-09-11T22:22:09.012Z,13.50
2018-09-11T22:24:39.773Z,13.40
2018-09-11T22:27:08.540Z,13.50
2018-09-11T22:29:56.104Z,13.50
2018-09-11T22:32:33.068Z,13.40
2018-09-11T22:35:03.820Z,13.30
2018-09-11T22:37:35.448Z,13.20
2018-09-11T22:40:28.196Z,13.20
2018-09-11T22:43:02.215Z,13.10
2018-09-11T22:45:32.984Z,13.10
2018-09-11T22:48:01.800Z,13.10
2018-09-11T22:50:38.212Z,13.10
2018-09-11T22:53:10.516Z,13.10
2018-09-11T22:55:51.458Z,13.10
2018-09-11T22:58:32.364Z,13.00
2018-09-11T23:01:06.556Z,13.00
2018-09-11T23:03:43.598Z,12.90
2018-09-11T23:06:15.968Z,12.90
2018-09-11T23:08:56.313Z,12.80
2018-09-11T23:11:31.139Z,12.70
2018-09-11T23:14:14.512Z,12.70
2018-09-11T23:16:43.264Z,12.70
2018-09-11T23:19:17.047Z,12.80
2018-09-11T23:22:02.396Z,12.80
2018-09-11T23:24:33.148Z,12.90
2018-09-11T23:27:01.948Z,13.00
2018-09-11T23:29:32.793Z,13.00
2018-09-11T23:32:01.572Z,13.10
2018-09-11T23:34:34.332Z,13.10
2018-09-11T23:37:08.816Z,13.10
2018-09-11T23:39:37.556Z,13.10
2018-09-11T23:44:59.664Z,13.00
2018-09-11T23:47:33.013Z,12.90
2018-09-11T23:50:03.855Z,12.70
2018-09-11T23:52:33.664Z,12.50
2018-09-11T23:55:13.167Z,12.30
2018-09-11T23:57:56.576Z,12.40
